Time;durP1;ratioP1;P1;durP2;ratioP2;P2;SDS_P1;SDS_P2;PMS_P1;PMS_P2;Temp;Humidity;BMP_temperature;BMP_pressure;BME280_temperature;BME280_humidity;BME280_pressure;Samples;Min_cycle;Max_cycle;Signal;HPM_P1;HPM_P2
2022/10/14 00:01:07;;;;;;;;;;;24.80;98.80;;;;;;4175652;28;20010;-69
2022/10/14 00:03:15;;;;;;;;;;;24.80;98.70;;;;;;4176540;28;19925;-69
2022/10/14 00:05:19;;;;;;;;;;;24.80;98.60;;;;;;4176184;28;19925;-69
2022/10/14 00:07:27;;;;;;;;;;;24.90;98.80;;;;;;4159326;28;20000;-70
2022/10/14 00:09:33;;;;;;;;;;;24.90;98.80;;;;;;4175579;28;19928;-70
2022/10/14 00:11:42;;;;;;;;;;;24.90;98.70;;;;;;4176362;28;19939;-70
2022/10/14 00:13:47;;;;;;;;;;;25.00;98.80;;;;;;4176191;28;19924;-70
2022/10/14 00:15:51;;;;;;;;;;;25.00;98.70;;;;;;4176597;28;19984;-71
2022/10/14 00:17:56;;;;;;;;;;;25.00;98.50;;;;;;4176852;28;19925;-71
2022/10/14 00:20:00;;;;;;;;;;;25.10;98.60;;;;;;4176957;28;19953;-70
2022/10/14 00:22:08;;;;;;;;;;;25.10;98.60;;;;;;4176607;28;20379;-71
2022/10/14 00:24:13;;;;;;;;;;;25.10;98.70;;;;;;4177234;28;19957;-70
2022/10/14 00:26:18;;;;;;;;;;;25.20;98.50;;;;;;4176716;28;19931;-69
2022/10/14 00:28:26;;;;;;;;;;;25.20;98.50;;;;;;4149252;28;19933;-70
2022/10/14 00:30:30;;;;;;;;;;;25.20;98.40;;;;;;4187240;28;19928;-70
2022/10/14 00:32:36;;;;;;;;;;;25.30;98.20;;;;;;4193206;28;19928;-70
2022/10/14 00:34:45;;;;;;;;;;;25.30;98.00;;;;;;4160905;28;19975;-70
2022/10/14 00:36:49;;;;;;;;;;;25.40;98.00;;;;;;4174234;28;20394;-69
2022/10/14 00:38:55;;;;;;;;;;;25.40;97.40;;;;;;4191324;28;19978;-70
2022/10/14 00:41:01;;;;;;;;;;;25.40;97.30;;;;;;4192656;28;19928;-70
2022/10/14 00:43:09;;;;;;;;;;;25.40;97.10;;;;;;4208864;28;19928;-69
2022/10/14 00:45:19;;;;;;;;;;;25.50;97.00;;;;;;4192607;28;19978;-69
2022/10/14 00:47:23;;;;;;;;;;;25.50;97.10;;;;;;4210555;28;19978;-69
2022/10/14 00:49:35;;;;;;;;;;;25.60;97.20;;;;;;4181612;28;19967;-70
2022/10/14 00:51:40;;;;;;;;;;;25.60;97.30;;;;;;4174454;28;19983;-71
2022/10/14 00:53:48;;;;;;;;;;;25.60;97.30;;;;;;4191557;28;19932;-71
2022/10/14 00:55:52;;;;;;;;;;;25.60;97.20;;;;;;4193554;28;19928;-70
2022/10/14 00:57:57;;;;;;;;;;;25.70;97.30;;;;;;4171986;28;19935;-71
2022/10/14 01:00:06;;;;;;;;;;;25.70;97.30;;;;;;4155183;28;20029;-71
2022/10/14 01:02:09;;;;;;;;;;;25.70;97.10;;;;;;4141739;28;20361;-71
2022/10/14 01:04:14;;;;;;;;;;;25.80;97.00;;;;;;4157268;28;19929;-70
2022/10/14 01:06:22;;;;;;;;;;;25.80;96.60;;;;;;4141039;28;19944;-70
2022/10/14 01:08:30;;;;;;;;;;;25.90;96.50;;;;;;4149304;28;19951;-70
2022/10/14 01:10:34;;;;;;;;;;;25.90;96.40;;;;;;4157168;28;19925;-69
2022/10/14 01:12:42;;;;;;;;;;;25.80;95.50;;;;;;4175466;28;19924;-70
2022/10/14 01:15:08;;;;;;;;;;;25.70;95.40;;;;;;4143882;28;19965;-70
2022/10/14 01:17:12;;;;;;;;;;;25.70;95.20;;;;;;4159459;28;19925;-71
2022/10/14 01:19:31;;;;;;;;;;;25.70;95.10;;;;;;4160210;28;20681;-69
2022/10/14 01:21:46;;;;;;;;;;;25.80;95.00;;;;;;4160442;28;20304;-70
2022/10/14 01:24:04;;;;;;;;;;;25.90;94.90;;;;;;4161423;28;19941;-70
2022/10/14 01:26:20;;;;;;;;;;;25.90;95.30;;;;;;4160551;28;19936;-70
2022/10/14 01:28:30;;;;;;;;;;;25.60;94.60;;;;;;4156000;28;20098;-70
2022/10/14 01:30:38;;;;;;;;;;;25.50;94.90;;;;;;4145696;28;19930;-70
2022/10/14 01:32:58;;;;;;;;;;;25.70;94.90;;;;;;4177687;28;19933;-70
2022/10/14 01:35:15;;;;;;;;;;;25.80;95.30;;;;;;4171880;28;20020;-71
2022/10/14 01:37:24;;;;;;;;;;;25.70;94.40;;;;;;4148757;28;19955;-71
2022/10/14 01:39:31;;;;;;;;;;;25.70;94.30;;;;;;4162164;28;20293;-70
2022/10/14 01:41:40;;;;;;;;;;;25.80;94.40;;;;;;4134795;28;19929;-70
2022/10/14 01:43:47;;;;;;;;;;;25.90;93.20;;;;;;4145549;28;20008;-69
2022/10/14 01:45:53;;;;;;;;;;;25.90;93.10;;;;;;4155147;28;20015;-70
2022/10/14 01:47:57;;;;;;;;;;;26.00;93.30;;;;;;4175465;28;19929;-70
2022/10/14 01:50:07;;;;;;;;;;;26.00;92.40;;;;;;4154396;28;19929;-70
2022/10/14 01:52:13;;;;;;;;;;;26.00;92.10;;;;;;4159165;28;19932;-69
2022/10/14 01:54:18;;;;;;;;;;;26.10;92.50;;;;;;4159823;28;20443;-70
2022/10/14 01:56:24;;;;;;;;;;;26.20;92.90;;;;;;4158909;28;20352;-69
2022/10/14 01:58:32;;;;;;;;;;;26.20;94.00;;;;;;4159984;28;19937;-70
2022/10/14 02:00:37;;;;;;;;;;;26.30;93.60;;;;;;4175241;28;19975;-70
2022/10/14 02:02:44;;;;;;;;;;;26.30;94.10;;;;;;4138916;28;20400;-68
2022/10/14 02:04:50;;;;;;;;;;;26.10;93.50;;;;;;4160191;28;20024;-69
2022/10/14 02:06:59;;;;;;;;;;;26.20;94.00;;;;;;4158914;28;19933;-69
2022/10/14 02:09:12;;;;;;;;;;;26.20;93.20;;;;;;4175243;28;20736;-70
2022/10/14 02:11:19;;;;;;;;;;;26.30;93.70;;;;;;4176018;28;19932;-69
2022/10/14 02:13:43;;;;;;;;;;;26.40;92.70;;;;;;4127485;28;20371;-69
2022/10/14 02:15:49;;;;;;;;;;;26.30;91.40;;;;;;4142789;28;19991;-70
2022/10/14 02:18:00;;;;;;;;;;;26.20;91.40;;;;;;4176305;28;19925;-70
2022/10/14 02:20:06;;;;;;;;;;;26.30;88.30;;;;;;4175439;28;20399;-69
2022/10/14 02:22:23;;;;;;;;;;;26.40;87.30;;;;;;4160895;28;20299;-69
2022/10/14 02:24:30;;;;;;;;;;;26.50;88.20;;;;;;4157697;28;19929;-69
2022/10/14 02:26:34;;;;;;;;;;;26.60;87.90;;;;;;4176346;28;19929;-70
2022/10/14 02:28:40;;;;;;;;;;;26.50;87.20;;;;;;4163745;28;20019;-71
2022/10/14 02:30:51;;;;;;;;;;;26.60;86.30;;;;;;4187387;28;20018;-70
2022/10/14 02:32:56;;;;;;;;;;;26.60;85.40;;;;;;4178815;28;20015;-71
2022/10/14 02:35:03;;;;;;;;;;;26.70;85.50;;;;;;4160395;28;20378;-71
2022/10/14 02:37:10;;;;;;;;;;;26.70;83.90;;;;;;4162707;28;20544;-70
2022/10/14 02:39:14;;;;;;;;;;;26.70;83.60;;;;;;4165751;28;20621;-70
2022/10/14 02:41:20;;;;;;;;;;;26.60;82.70;;;;;;4186053;28;19958;-70
2022/10/14 02:43:26;;;;;;;;;;;26.70;82.50;;;;;;4177812;28;19979;-69
2022/10/14 02:45:30;;;;;;;;;;;26.60;81.80;;;;;;4167361;28;20400;-70
2022/10/14 02:47:36;;;;;;;;;;;26.60;81.70;;;;;;4160169;28;19925;-69
2022/10/14 02:49:41;;;;;;;;;;;26.70;80.50;;;;;;4161307;28;19925;-69
2022/10/14 02:51:49;;;;;;;;;;;26.90;82.10;;;;;;4161121;28;19925;-70
2022/10/14 02:54:00;;;;;;;;;;;27.00;82.30;;;;;;4160637;28;20295;-69
2022/10/14 02:56:08;;;;;;;;;;;27.00;81.80;;;;;;4160726;28;19940;-69
2022/10/14 02:58:14;;;;;;;;;;;27.00;82.30;;;;;;4160997;28;19925;-68
2022/10/14 03:00:19;;;;;;;;;;;27.00;81.00;;;;;;4160568;28;19929;-68
2022/10/14 03:02:27;;;;;;;;;;;27.00;81.60;;;;;;4159597;28;20351;-68
2022/10/14 03:04:34;;;;;;;;;;;27.00;81.80;;;;;;4176303;28;19925;-68
2022/10/14 03:06:40;;;;;;;;;;;27.10;82.70;;;;;;4142602;28;20055;-68
2022/10/14 03:08:46;;;;;;;;;;;27.20;82.60;;;;;;4175704;28;19929;-68
2022/10/14 03:10:50;;;;;;;;;;;27.10;82.70;;;;;;4160978;28;20316;-70
2022/10/14 03:12:56;;;;;;;;;;;27.10;83.80;;;;;;4144214;28;19929;-68
2022/10/14 03:15:09;;;;;;;;;;;27.20;83.50;;;;;;4169294;28;20572;-68
2022/10/14 03:17:14;;;;;;;;;;;27.20;81.90;;;;;;4159713;28;19929;-68
2022/10/14 03:19:21;;;;;;;;;;;27.30;82.60;;;;;;4176641;28;20012;-69
2022/10/14 03:21:30;;;;;;;;;;;27.30;81.60;;;;;;4161173;28;19990;-68
2022/10/14 03:23:35;;;;;;;;;;;27.20;82.20;;;;;;4157827;28;19925;-69
2022/10/14 03:25:42;;;;;;;;;;;27.20;82.00;;;;;;4175719;28;19960;-68
2022/10/14 03:27:59;;;;;;;;;;;27.30;81.90;;;;;;4146910;28;20408;-68
2022/10/14 03:30:17;;;;;;;;;;;27.20;82.30;;;;;;4159730;28;19925;-69
2022/10/14 03:32:32;;;;;;;;;;;27.20;81.20;;;;;;4159809;28;19965;-68
2022/10/14 03:34:48;;;;;;;;;;;27.20;82.60;;;;;;4160264;28;19929;-68
2022/10/14 03:37:00;;;;;;;;;;;27.20;79.70;;;;;;4192436;28;20027;-68
2022/10/14 03:39:07;;;;;;;;;;;27.30;81.50;;;;;;4177057;28;19948;-68
2022/10/14 03:41:27;;;;;;;;;;;27.40;83.80;;;;;;4170162;28;20311;-69
2022/10/14 03:43:35;;;;;;;;;;;27.60;82.40;;;;;;4176325;28;20015;-69
2022/10/14 03:45:40;;;;;;;;;;;27.60;82.00;;;;;;4177116;28;20015;-70
2022/10/14 03:47:49;;;;;;;;;;;27.60;81.30;;;;;;4167877;28;19936;-69
2022/10/14 03:49:53;;;;;;;;;;;27.60;80.10;;;;;;4176213;28;19929;-68
2022/10/14 03:52:03;;;;;;;;;;;27.60;81.50;;;;;;4159491;28;20031;-69
2022/10/14 03:54:09;;;;;;;;;;;27.60;82.80;;;;;;4159833;28;19936;-68
2022/10/14 03:56:14;;;;;;;;;;;27.80;82.20;;;;;;4159719;28;19925;-68
2022/10/14 03:58:19;;;;;;;;;;;28.00;82.70;;;;;;4176346;28;19932;-68
2022/10/14 04:00:30;;;;;;;;;;;28.10;80.10;;;;;;4174284;28;20448;-68
2022/10/14 04:02:53;;;;;;;;;;;28.10;79.10;;;;;;4160005;28;19925;-68
2022/10/14 04:05:10;;;;;;;;;;;28.00;78.20;;;;;;4160864;28;19929;-68
2022/10/14 04:07:18;;;;;;;;;;;28.10;78.50;;;;;;4190179;28;20367;-69
2022/10/14 04:09:28;;;;;;;;;;;28.20;79.30;;;;;;4176207;28;20158;-68
2022/10/14 04:11:33;;;;;;;;;;;28.30;78.70;;;;;;4175980;28;19925;-68
2022/10/14 04:13:44;;;;;;;;;;;28.30;77.60;;;;;;4177055;28;19989;-69
2022/10/14 04:15:48;;;;;;;;;;;28.30;78.30;;;;;;4175449;28;19932;-67
2022/10/14 04:17:57;;;;;;;;;;;28.30;76.30;;;;;;4164416;28;19929;-68
2022/10/14 04:20:03;;;;;;;;;;;28.30;75.60;;;;;;4160506;28;19929;-68
2022/10/14 04:22:09;;;;;;;;;;;28.20;76.40;;;;;;4159046;28;19929;-68
2022/10/14 04:24:13;;;;;;;;;;;28.40;77.50;;;;;;4159205;28;19929;-66
2022/10/14 04:26:27;;;;;;;;;;;28.30;75.40;;;;;;4159183;28;20441;-69
2022/10/14 04:28:32;;;;;;;;;;;28.30;75.50;;;;;;4191767;28;19928;-69
2022/10/14 04:30:52;;;;;;;;;;;28.40;76.70;;;;;;4192423;28;19924;-69
2022/10/14 04:33:01;;;;;;;;;;;28.50;75.60;;;;;;4159353;28;20383;-68
2022/10/14 04:35:06;;;;;;;;;;;28.40;74.60;;;;;;4175465;28;20287;-70
2022/10/14 04:37:12;;;;;;;;;;;28.30;74.80;;;;;;4194290;28;19928;-68
2022/10/14 04:39:24;;;;;;;;;;;28.40;75.00;;;;;;4175628;28;20363;-69
2022/10/14 04:41:28;;;;;;;;;;;28.50;74.80;;;;;;4175756;28;20003;-69
2022/10/14 04:43:36;;;;;;;;;;;28.50;74.50;;;;;;4209141;28;19971;-69
2022/10/14 04:46:04;;;;;;;;;;;28.50;74.50;;;;;;4176627;28;20396;-69
2022/10/14 04:48:10;;;;;;;;;;;28.60;75.50;;;;;;4178463;28;19971;-69
2022/10/14 04:50:20;;;;;;;;;;;28.70;73.40;;;;;;4211766;28;19928;-70
2022/10/14 04:52:44;;;;;;;;;;;28.70;73.40;;;;;;4164695;28;19925;-70
2022/10/14 04:54:48;;;;;;;;;;;28.60;73.10;;;;;;4178498;28;20014;-69
2022/10/14 04:57:01;;;;;;;;;;;28.70;73.10;;;;;;4211940;28;20503;-69
2022/10/14 04:59:06;;;;;;;;;;;28.80;73.90;;;;;;4180559;28;19925;-69
2022/10/14 05:01:36;;;;;;;;;;;28.80;73.00;;;;;;4205499;28;19928;-69
2022/10/14 05:03:44;;;;;;;;;;;28.70;73.80;;;;;;4192444;28;19928;-68
2022/10/14 05:05:49;;;;;;;;;;;28.80;74.20;;;;;;4195255;28;20027;-68
2022/10/14 05:07:54;;;;;;;;;;;29.00;75.30;;;;;;4203370;28;19928;-68
2022/10/14 05:10:12;;;;;;;;;;;29.10;74.00;;;;;;4197453;28;19951;-68
2022/10/14 05:12:18;;;;;;;;;;;29.00;72.30;;;;;;4178927;28;19975;-70
2022/10/14 05:14:28;;;;;;;;;;;29.10;73.50;;;;;;4164135;28;19929;-70
2022/10/14 05:16:45;;;;;;;;;;;29.10;73.40;;;;;;4187567;28;20618;-70
2022/10/14 05:18:56;;;;;;;;;;;29.10;74.50;;;;;;4161454;28;19995;-70
2022/10/14 05:21:02;;;;;;;;;;;29.10;73.70;;;;;;4157449;28;19925;-70
2022/10/14 05:23:26;;;;;;;;;;;29.10;74.80;;;;;;4176390;28;19975;-70
2022/10/14 05:25:34;;;;;;;;;;;29.20;73.90;;;;;;4191191;28;20099;-69
2022/10/14 05:27:38;;;;;;;;;;;29.10;73.30;;;;;;4192788;28;19928;-70
2022/10/14 05:29:43;;;;;;;;;;;29.10;74.40;;;;;;4194106;28;19932;-70
2022/10/14 05:31:48;;;;;;;;;;;29.20;72.40;;;;;;4159520;28;20052;-69
2022/10/14 05:34:16;;;;;;;;;;;29.20;73.90;;;;;;4154409;28;20296;-69
2022/10/14 05:36:21;;;;;;;;;;;29.30;73.40;;;;;;4194372;28;19929;-69
2022/10/14 05:38:25;;;;;;;;;;;29.30;72.30;;;;;;4161579;28;19932;-71
2022/10/14 05:40:29;;;;;;;;;;;29.40;72.30;;;;;;4159324;28;19980;-70
2022/10/14 05:42:37;;;;;;;;;;;29.30;72.90;;;;;;4178278;28;20318;-70
2022/10/14 05:44:44;;;;;;;;;;;29.40;73.40;;;;;;4162648;28;20020;-70
2022/10/14 05:46:49;;;;;;;;;;;29.40;73.00;;;;;;4191273;28;19974;-70
2022/10/14 05:48:59;;;;;;;;;;;29.40;73.20;;;;;;4158996;28;19960;-70
2022/10/14 05:51:06;;;;;;;;;;;29.50;72.50;;;;;;4186296;28;19924;-69
2022/10/14 05:53:12;;;;;;;;;;;29.50;73.20;;;;;;3285301;28;10000976;-70
2022/10/14 05:55:20;;;;;;;;;;;29.40;73.20;;;;;;4177777;28;19951;-70
2022/10/14 05:57:27;;;;;;;;;;;29.30;73.60;;;;;;4211089;28;19924;-70
2022/10/14 05:59:33;;;;;;;;;;;29.50;73.80;;;;;;4176489;28;19929;-71
2022/10/14 06:01:37;;;;;;;;;;;29.60;73.90;;;;;;4195452;28;19944;-71
2022/10/14 06:03:43;;;;;;;;;;;29.60;72.50;;;;;;4161803;28;19936;-70
2022/10/14 06:05:47;;;;;;;;;;;29.50;71.40;;;;;;4178641;28;19967;-69
2022/10/14 06:07:52;;;;;;;;;;;29.40;71.70;;;;;;4173131;28;19932;-69
2022/10/14 06:09:56;;;;;;;;;;;29.40;72.70;;;;;;4180372;28;20035;-69
2022/10/14 06:12:00;;;;;;;;;;;29.50;71.70;;;;;;4168441;28;19940;-69
2022/10/14 06:14:06;;;;;;;;;;;29.60;71.50;;;;;;4160586;28;19937;-70
2022/10/14 06:16:13;;;;;;;;;;;29.60;70.70;;;;;;4161640;28;20051;-69
2022/10/14 06:18:17;;;;;;;;;;;29.70;70.30;;;;;;4175429;28;19932;-70
2022/10/14 06:20:22;;;;;;;;;;;29.70;70.70;;;;;;4192091;28;19928;-69
2022/10/14 06:22:27;;;;;;;;;;;29.80;69.90;;;;;;4177522;28;19932;-71
2022/10/14 06:24:31;;;;;;;;;;;29.80;68.20;;;;;;4178288;28;19929;-70
2022/10/14 06:26:34;;;;;;;;;;;29.80;69.30;;;;;;4178111;28;19963;-69
2022/10/14 06:28:38;;;;;;;;;;;29.80;69.70;;;;;;4184385;28;20576;-69
2022/10/14 06:30:47;;;;;;;;;;;29.80;70.50;;;;;;4194467;28;19928;-70
2022/10/14 06:32:52;;;;;;;;;;;29.80;71.20;;;;;;4194632;28;19925;-69
2022/10/14 06:34:57;;;;;;;;;;;29.80;68.90;;;;;;4194897;28;19929;-69
2022/10/14 06:37:01;;;;;;;;;;;29.80;69.50;;;;;;4194796;28;20445;-69
2022/10/14 06:39:05;;;;;;;;;;;29.80;69.30;;;;;;4211826;28;20340;-69
2022/10/14 06:41:09;;;;;;;;;;;29.80;69.90;;;;;;4211284;28;19932;-70
2022/10/14 06:43:13;;;;;;;;;;;29.80;70.20;;;;;;4211678;28;19932;-69
2022/10/14 06:45:24;;;;;;;;;;;29.80;69.60;;;;;;4211355;28;19978;-69
2022/10/14 06:47:29;;;;;;;;;;;29.80;70.20;;;;;;4226833;28;19930;-70
2022/10/14 06:49:33;;;;;;;;;;;29.80;70.10;;;;;;4211539;28;19931;-69
2022/10/14 06:51:39;;;;;;;;;;;29.90;68.00;;;;;;4210784;28;20379;-70
2022/10/14 06:53:45;;;;;;;;;;;30.00;70.50;;;;;;4211540;28;20350;-70
2022/10/14 06:55:55;;;;;;;;;;;30.00;69.80;;;;;;4199456;28;19986;-71
2022/10/14 06:58:00;;;;;;;;;;;30.00;69.40;;;;;;4194421;28;20023;-70
2022/10/14 07:00:04;;;;;;;;;;;29.90;70.70;;;;;;4194696;28;19928;-70
2022/10/14 07:02:11;;;;;;;;;;;30.00;70.50;;;;;;4194487;28;20424;-69
2022/10/14 07:04:15;;;;;;;;;;;29.90;70.80;;;;;;4194673;28;19928;-70
2022/10/14 07:06:22;;;;;;;;;;;29.80;68.70;;;;;;4193786;28;19940;-70
2022/10/14 07:08:26;;;;;;;;;;;29.80;70.40;;;;;;4201976;28;19924;-70
2022/10/14 07:10:30;;;;;;;;;;;29.80;69.80;;;;;;4210231;28;19938;-70
2022/10/14 07:12:35;;;;;;;;;;;29.80;70.00;;;;;;4194584;28;20555;-69
2022/10/14 07:14:39;;;;;;;;;;;29.90;70.00;;;;;;4194709;28;19939;-69
2022/10/14 07:16:45;;;;;;;;;;;29.90;70.80;;;;;;4194154;28;19929;-70
2022/10/14 07:18:49;;;;;;;;;;;29.80;70.70;;;;;;4211124;28;19928;-70
2022/10/14 07:20:55;;;;;;;;;;;29.70;70.60;;;;;;4211077;28;20257;-70
2022/10/14 07:23:02;;;;;;;;;;;29.60;70.70;;;;;;4193350;28;19932;-69
2022/10/14 07:25:08;;;;;;;;;;;29.50;71.30;;;;;;4210890;28;19925;-70
2022/10/14 07:27:14;;;;;;;;;;;29.60;71.80;;;;;;4198217;28;19977;-69
2022/10/14 07:29:21;;;;;;;;;;;29.50;71.10;;;;;;4194036;28;19986;-69
2022/10/14 07:31:28;;;;;;;;;;;29.60;71.80;;;;;;4193726;28;19924;-70
2022/10/14 07:33:36;;;;;;;;;;;29.60;71.90;;;;;;4194241;28;20442;-68
2022/10/14 07:35:46;;;;;;;;;;;29.60;72.00;;;;;;4194111;28;19928;-70
2022/10/14 07:37:53;;;;;;;;;;;29.60;71.70;;;;;;4201611;28;19928;-69
2022/10/14 07:39:57;;;;;;;;;;;29.60;72.10;;;;;;4176702;28;19931;-70
2022/10/14 07:42:05;;;;;;;;;;;29.70;72.70;;;;;;4211081;28;19928;-69
2022/10/14 07:44:11;;;;;;;;;;;29.70;72.30;;;;;;4175429;28;20444;-69
2022/10/14 07:46:27;;;;;;;;;;;29.70;72.80;;;;;;4157836;28;19929;-69
2022/10/14 07:48:33;;;;;;;;;;;29.70;70.90;;;;;;4193568;28;20416;-70
2022/10/14 07:50:59;;;;;;;;;;;29.70;72.00;;;;;;4179694;28;19925;-69
2022/10/14 07:53:03;;;;;;;;;;;29.70;73.60;;;;;;4193873;28;20636;-70
2022/10/14 07:55:07;;;;;;;;;;;29.80;73.30;;;;;;4193801;28;19932;-70
2022/10/14 07:57:14;;;;;;;;;;;29.80;73.30;;;;;;4209235;28;19933;-71
2022/10/14 07:59:21;;;;;;;;;;;29.80;74.50;;;;;;4208768;28;19924;-70
2022/10/14 08:01:27;;;;;;;;;;;29.90;74.40;;;;;;4192301;28;19924;-72
2022/10/14 08:03:33;;;;;;;;;;;29.90;73.00;;;;;;4209764;28;19956;-73
2022/10/14 08:05:38;;;;;;;;;;;29.90;73.20;;;;;;4193733;28;20028;-70
2022/10/14 08:07:45;;;;;;;;;;;29.90;72.30;;;;;;4181823;28;19929;-71
2022/10/14 08:09:52;;;;;;;;;;;29.90;72.90;;;;;;4210734;28;19924;-72
2022/10/14 08:11:59;;;;;;;;;;;30.00;73.30;;;;;;4193354;28;20035;-71
2022/10/14 08:14:06;;;;;;;;;;;30.00;72.70;;;;;;4192773;28;20517;-72
2022/10/14 08:16:18;;;;;;;;;;;29.90;72.60;;;;;;4210875;28;19947;-71
2022/10/14 08:18:23;;;;;;;;;;;30.00;72.50;;;;;;4210977;28;19952;-71
2022/10/14 08:20:31;;;;;;;;;;;29.90;73.60;;;;;;4209954;28;20020;-70
2022/10/14 08:22:37;;;;;;;;;;;30.00;74.00;;;;;;4207075;28;19924;-71
2022/10/14 08:24:43;;;;;;;;;;;30.00;74.40;;;;;;4197297;28;19928;-71
2022/10/14 08:26:49;;;;;;;;;;;30.00;74.70;;;;;;4197094;28;19929;-70
2022/10/14 08:28:57;;;;;;;;;;;30.00;74.50;;;;;;4197241;28;20007;-70
2022/10/14 08:31:01;;;;;;;;;;;30.00;75.30;;;;;;4212249;28;19924;-70
2022/10/14 08:33:08;;;;;;;;;;;29.90;74.10;;;;;;4197295;28;20039;-70
2022/10/14 08:35:15;;;;;;;;;;;29.80;73.40;;;;;;4212366;28;19955;-70
2022/10/14 08:37:19;;;;;;;;;;;29.70;73.60;;;;;;4200160;28;19924;-70
2022/10/14 08:39:24;;;;;;;;;;;29.60;73.50;;;;;;4213856;28;19927;-69
2022/10/14 08:41:28;;;;;;;;;;;29.60;73.30;;;;;;4199888;28;20038;-70
2022/10/14 08:43:35;;;;;;;;;;;29.60;72.60;;;;;;4197210;28;19943;-71
2022/10/14 08:45:47;;;;;;;;;;;29.60;72.50;;;;;;4179328;28;19940;-72
2022/10/14 08:47:54;;;;;;;;;;;29.70;73.00;;;;;;4179906;28;19939;-71
2022/10/14 08:50:01;;;;;;;;;;;29.70;73.70;;;;;;4197446;28;19929;-71
2022/10/14 08:52:16;;;;;;;;;;;29.70;73.70;;;;;;4179736;28;20008;-72
2022/10/14 08:54:41;;;;;;;;;;;29.70;74.00;;;;;;4180041;28;19924;-70
2022/10/14 08:56:46;;;;;;;;;;;29.70;74.40;;;;;;4180439;28;20026;-71
2022/10/14 08:58:53;;;;;;;;;;;29.70;74.90;;;;;;4195627;28;20599;-70
2022/10/14 09:01:09;;;;;;;;;;;29.70;75.20;;;;;;4179070;28;19952;-70
2022/10/14 09:03:17;;;;;;;;;;;29.70;75.80;;;;;;4180874;28;19925;-70
2022/10/14 09:05:24;;;;;;;;;;;29.70;75.90;;;;;;4195415;28;19990;-69
2022/10/14 09:07:31;;;;;;;;;;;29.60;75.70;;;;;;4190866;28;19932;-70
2022/10/14 09:09:35;;;;;;;;;;;29.60;76.50;;;;;;4195381;28;20012;-71
2022/10/14 09:11:43;;;;;;;;;;;29.60;76.70;;;;;;4213170;28;19924;-70
2022/10/14 09:13:54;;;;;;;;;;;29.60;77.50;;;;;;4196159;28;19935;-70
2022/10/14 09:16:07;;;;;;;;;;;29.60;77.50;;;;;;4195114;28;19964;-71
2022/10/14 09:18:31;;;;;;;;;;;29.50;77.30;;;;;;4195566;28;19928;-71
2022/10/14 09:20:38;;;;;;;;;;;29.50;77.50;;;;;;4179208;28;19925;-70
2022/10/14 09:22:46;;;;;;;;;;;29.50;78.50;;;;;;4194432;28;19948;-71
2022/10/14 09:24:52;;;;;;;;;;;29.50;78.60;;;;;;4195284;28;19932;-70
2022/10/14 09:27:04;;;;;;;;;;;29.50;78.80;;;;;;4211691;28;20408;-71
2022/10/14 09:29:19;;;;;;;;;;;29.50;78.80;;;;;;4183824;28;19998;-69
2022/10/14 09:31:25;;;;;;;;;;;29.50;79.10;;;;;;4161858;28;19973;-70
2022/10/14 09:33:33;;;;;;;;;;;29.50;78.90;;;;;;4179938;28;20066;-70
2022/10/14 09:35:43;;;;;;;;;;;29.40;78.80;;;;;;4162838;28;19933;-70
2022/10/14 09:37:49;;;;;;;;;;;29.40;79.40;;;;;;4173002;28;19944;-70
2022/10/14 09:39:58;;;;;;;;;;;29.30;80.60;;;;;;4179198;28;19925;-70
2022/10/14 09:42:02;;;;;;;;;;;29.20;80.10;;;;;;4179021;28;19931;-70
2022/10/14 09:44:17;;;;;;;;;;;29.30;80.10;;;;;;4163947;28;19936;-70
2022/10/14 09:46:23;;;;;;;;;;;29.30;79.90;;;;;;4162796;28;19925;-71
2022/10/14 09:48:31;;;;;;;;;;;29.30;80.50;;;;;;4163014;28;20314;-70
2022/10/14 09:50:45;;;;;;;;;;;29.30;80.30;;;;;;4176506;28;19929;-70
2022/10/14 09:53:00;;;;;;;;;;;29.30;81.00;;;;;;4163337;28;19975;-71
2022/10/14 09:55:17;;;;;;;;;;;29.20;81.10;;;;;;4176260;28;19936;-71
2022/10/14 09:57:23;;;;;;;;;;;29.20;81.60;;;;;;4162626;28;19929;-71
2022/10/14 09:59:29;;;;;;;;;;;29.10;81.80;;;;;;4162987;28;20383;-71
2022/10/14 10:01:38;;;;;;;;;;;29.20;82.00;;;;;;4176071;28;20287;-71
2022/10/14 10:03:44;;;;;;;;;;;29.10;81.30;;;;;;4193916;28;19928;-71
2022/10/14 10:06:24;;;;;;;;;;;29.10;81.40;;;;;;4178887;28;20593;-71
2022/10/14 10:08:28;;;;;;;;;;;29.00;80.90;;;;;;4163068;28;19925;-71
2022/10/14 10:10:36;;;;;;;;;;;29.00;80.40;;;;;;4193518;28;19928;-71
2022/10/14 10:12:46;;;;;;;;;;;29.00;80.20;;;;;;4178891;28;19932;-71
2022/10/14 10:14:56;;;;;;;;;;;29.00;80.20;;;;;;4162852;28;19929;-71
2022/10/14 10:17:07;;;;;;;;;;;29.00;80.20;;;;;;4160481;28;19933;-69
2022/10/14 10:19:31;;;;;;;;;;;29.00;80.60;;;;;;4160086;28;19935;-70
2022/10/14 10:21:36;;;;;;;;;;;28.90;81.20;;;;;;4159177;28;19935;-70
2022/10/14 10:23:49;;;;;;;;;;;28.90;82.30;;;;;;4164221;28;20668;-71
2022/10/14 10:25:53;;;;;;;;;;;28.90;81.70;;;;;;4160578;28;19937;-70
2022/10/14 10:27:58;;;;;;;;;;;28.90;81.70;;;;;;4192439;28;19928;-70
2022/10/14 10:30:19;;;;;;;;;;;28.80;82.30;;;;;;4198884;28;19924;-71
2022/10/14 10:32:23;;;;;;;;;;;28.70;82.40;;;;;;4195397;28;19932;-70
2022/10/14 10:34:30;;;;;;;;;;;28.80;82.90;;;;;;4195818;28;19924;-71
2022/10/14 10:36:36;;;;;;;;;;;28.80;82.90;;;;;;4194627;28;20493;-70
2022/10/14 10:38:48;;;;;;;;;;;28.70;83.10;;;;;;4209379;28;19924;-71
2022/10/14 10:40:57;;;;;;;;;;;28.70;83.40;;;;;;4194169;28;20291;-69
2022/10/14 10:43:19;;;;;;;;;;;28.70;83.60;;;;;;4194427;28;19929;-72
2022/10/14 10:45:39;;;;;;;;;;;28.60;83.70;;;;;;4193597;28;19990;-70
2022/10/14 10:47:47;;;;;;;;;;;28.60;83.70;;;;;;4195161;28;19928;-70
2022/10/14 10:50:10;;;;;;;;;;;28.60;84.30;;;;;;4194332;28;19939;-71
2022/10/14 10:52:29;;;;;;;;;;;28.50;85.20;;;;;;4194995;28;20028;-70
2022/10/14 10:54:40;;;;;;;;;;;28.40;86.00;;;;;;4195162;28;19924;-71
2022/10/14 10:56:49;;;;;;;;;;;28.40;85.90;;;;;;4209021;28;19934;-70
2022/10/14 10:58:57;;;;;;;;;;;28.30;85.90;;;;;;4195021;28;19933;-70
2022/10/14 11:01:13;;;;;;;;;;;28.40;86.00;;;;;;4194712;28;19939;-70
2022/10/14 11:03:29;;;;;;;;;;;28.30;86.40;;;;;;4194517;28;20470;-70
2022/10/14 11:05:50;;;;;;;;;;;28.20;86.20;;;;;;4194751;28;19928;-71
2022/10/14 11:12:51;;;;;;;;;;;28.20;89.00;;;;;;4177274;28;19975;-70
2022/10/14 11:15:05;;;;;;;;;;;28.10;89.20;;;;;;4177166;28;20367;-70
2022/10/14 11:17:18;;;;;;;;;;;28.10;89.70;;;;;;4177792;28;19928;-71
2022/10/14 11:19:28;;;;;;;;;;;28.10;90.00;;;;;;4209431;28;19996;-69
2022/10/14 11:21:52;;;;;;;;;;;28.10;90.30;;;;;;4209411;28;19924;-71
2022/10/14 11:24:04;;;;;;;;;;;28.00;90.20;;;;;;4178345;28;19964;-70
2022/10/14 11:26:30;;;;;;;;;;;28.00;90.00;;;;;;4177821;28;19925;-71
2022/10/14 11:28:39;;;;;;;;;;;27.90;90.00;;;;;;4177519;28;19925;-72
2022/10/14 11:30:55;;;;;;;;;;;27.90;90.00;;;;;;4178201;28;19929;-69
2022/10/14 11:33:02;;;;;;;;;;;27.90;90.10;;;;;;4192666;28;19962;-70
2022/10/14 11:35:08;;;;;;;;;;;27.90;90.20;;;;;;4177875;28;19925;-69
2022/10/14 11:37:20;;;;;;;;;;;27.90;90.50;;;;;;4180477;28;19928;-70
2022/10/14 11:39:33;;;;;;;;;;;27.90;90.70;;;;;;4191774;28;20303;-70
2022/10/14 11:41:40;;;;;;;;;;;27.90;90.80;;;;;;4193404;28;19936;-70
2022/10/14 11:43:47;;;;;;;;;;;27.80;90.90;;;;;;4210876;28;19959;-70
2022/10/14 11:45:59;;;;;;;;;;;27.90;90.80;;;;;;4193099;28;19932;-70
2022/10/14 11:48:10;;;;;;;;;;;27.80;90.70;;;;;;4193205;28;19928;-70
2022/10/14 11:50:16;;;;;;;;;;;27.80;90.70;;;;;;4210933;28;19966;-71
2022/10/14 11:52:34;;;;;;;;;;;27.80;90.80;;;;;;4203838;28;20393;-71
2022/10/14 11:54:53;;;;;;;;;;;27.70;90.90;;;;;;4192784;28;19924;-72
2022/10/14 11:57:00;;;;;;;;;;;27.80;90.90;;;;;;4193980;28;19971;-71
2022/10/14 11:59:39;;;;;;;;;;;27.80;91.20;;;;;;4193661;28;20485;-71
2022/10/14 12:01:43;;;;;;;;;;;27.70;91.10;;;;;;4175133;28;19960;-71
2022/10/14 12:03:51;;;;;;;;;;;27.70;91.20;;;;;;4158741;28;20024;-71
2022/10/14 12:06:11;;;;;;;;;;;27.70;91.30;;;;;;4174691;28;19924;-70
2022/10/14 12:08:25;;;;;;;;;;;27.70;91.50;;;;;;4159471;28;19975;-71
2022/10/14 12:10:37;;;;;;;;;;;27.70;91.50;;;;;;4158048;28;20404;-70
2022/10/14 12:12:43;;;;;;;;;;;27.70;91.50;;;;;;4141752;28;19929;-70
2022/10/14 12:14:54;;;;;;;;;;;27.70;91.60;;;;;;4156920;28;20027;-69
2022/10/14 12:16:58;;;;;;;;;;;27.70;91.60;;;;;;4158478;28;20292;-69
2022/10/14 12:19:02;;;;;;;;;;;27.60;91.60;;;;;;4142306;28;19929;-70
2022/10/14 12:21:14;;;;;;;;;;;27.60;91.80;;;;;;4158474;28;20028;-70
2022/10/14 12:23:36;;;;;;;;;;;27.60;91.70;;;;;;4158850;28;19929;-70
2022/10/14 12:26:02;;;;;;;;;;;27.60;91.60;;;;;;4157836;28;20411;-71
2022/10/14 12:28:17;;;;;;;;;;;27.60;91.60;;;;;;4174757;28;19936;-70
2022/10/14 12:30:28;;;;;;;;;;;27.60;91.70;;;;;;4175063;28;19964;-70
2022/10/14 12:32:32;;;;;;;;;;;27.60;91.70;;;;;;4169509;28;19940;-70
2022/10/14 12:34:40;;;;;;;;;;;27.50;91.80;;;;;;4159290;28;19944;-70